Time;durP1;ratioP1;P1;durP2;ratioP2;P2;SDS_P1;SDS_P2;PMS_P1;PMS_P2;Temp;Humidity;BMP_temperature;BMP_pressure;BME280_temperature;BME280_humidity;BME280_pressure;Samples;Min_cycle;Max_cycle;Signal;HPM_P1;HPM_P2
2021/08/19 00:01:15;;;;;;;77.35;71.13;;;;;;;19.22;100.00;100852.59;5072350;28;20044;-80
2021/08/19 00:03:42;;;;;;;73.40;67.20;;;;;;;19.26;100.00;100854.75;5072537;28;20052;-80
2021/08/19 00:06:08;;;;;;;74.88;68.43;;;;;;;19.30;100.00;100847.78;5070949;28;20044;-80
2021/08/19 00:08:35;;;;;;;72.43;66.38;;;;;;;19.17;100.00;100851.75;5066751;28;20605;-80
2021/08/19 00:11:02;;;;;;;60.33;54.35;;;;;;;19.11;100.00;100863.56;5071038;28;20041;-82
2021/08/19 00:13:30;;;;;;;61.42;55.42;;;;;;;19.28;100.00;100866.09;5073335;28;20501;-81
2021/08/19 00:15:57;;;;;;;72.88;66.68;;;;;;;19.43;100.00;100858.09;5073073;28;20059;-81
2021/08/19 00:18:24;;;;;;;57.17;51.58;;;;;;;19.45;100.00;100869.41;5071979;28;20139;-81
2021/08/19 00:20:51;;;;;;;64.63;58.92;;;;;;;19.32;100.00;100870.69;5061724;28;20067;-81
2021/08/19 00:23:17;;;;;;;61.70;56.08;;;;;;;19.16;100.00;100877.84;5066897;28;20052;-81
2021/08/19 00:25:44;;;;;;;85.85;79.10;;;;;;;19.30;100.00;100891.66;5065996;28;20048;-80
2021/08/19 00:28:11;;;;;;;79.78;73.07;;;;;;;19.26;100.00;100882.50;5061080;28;20105;-80
2021/08/19 00:30:40;;;;;;;69.60;63.30;;;;;;;19.38;100.00;100887.69;5071959;28;20057;-81
2021/08/19 00:33:06;;;;;;;65.00;59.30;;;;;;;19.34;100.00;100887.41;5066895;28;20483;-79
2021/08/19 00:35:33;;;;;;;65.03;59.13;;;;;;;19.39;100.00;100892.00;5069760;28;20374;-81
2021/08/19 00:38:01;;;;;;;64.97;59.38;;;;;;;19.25;100.00;100888.16;5072180;28;20471;-81
2021/08/19 00:40:27;;;;;;;59.50;54.53;;;;;;;19.24;100.00;100887.31;5069756;28;20508;-80
2021/08/19 00:42:54;;;;;;;59.13;54.08;;;;;;;19.13;100.00;100888.34;5072253;28;20052;-81
2021/08/19 00:45:21;;;;;;;62.35;56.95;;;;;;;19.76;100.00;100891.13;5070577;28;20053;-81
2021/08/19 00:47:49;;;;;;;55.55;50.75;;;;;;;19.23;100.00;100888.41;5073290;28;20098;-81
2021/08/19 00:50:16;;;;;;;58.83;53.45;;;;;;;18.93;100.00;100881.72;5071663;28;20546;-79
2021/08/19 00:52:43;;;;;;;59.13;53.35;;;;;;;19.33;100.00;100877.69;5070414;28;20048;-80
2021/08/19 00:55:13;;;;;;;57.67;52.83;;;;;;;18.86;100.00;100878.44;5072464;28;20060;-80
2021/08/19 00:57:41;;;;;;;63.22;58.22;;;;;;;18.77;100.00;100880.78;5071891;28;20048;-79
2021/08/19 01:00:09;;;;;;;56.08;51.28;;;;;;;18.75;100.00;100871.34;5072430;28;20040;-80
2021/08/19 01:02:36;;;;;;;54.63;49.92;;;;;;;18.88;100.00;100872.78;5060627;28;20139;-81
2021/08/19 01:05:06;;;;;;;52.88;48.50;;;;;;;18.94;100.00;100872.59;5062682;28;20064;-81
2021/08/19 01:07:33;;;;;;;54.55;49.95;;;;;;;18.87;100.00;100871.19;5074080;28;20053;-80
2021/08/19 01:10:00;;;;;;;54.60;50.00;;;;;;;19.02;100.00;100865.09;5071226;28;20064;-81
2021/08/19 01:12:29;;;;;;;56.55;51.92;;;;;;;18.84;100.00;100867.13;5063940;28;20045;-81
2021/08/19 01:14:56;;;;;;;58.20;52.90;;;;;;;18.58;100.00;100878.69;5064789;28;20049;-80
2021/08/19 01:17:22;;;;;;;57.60;52.35;;;;;;;18.75;100.00;100874.03;5072327;28;20044;-80
2021/08/19 01:19:51;;;;;;;66.55;61.05;;;;;;;18.72;100.00;100874.53;5069857;28;20048;-80
2021/08/19 01:22:19;;;;;;;62.05;56.63;;;;;;;18.65;100.00;100876.63;5064572;28;20059;-81
2021/08/19 01:24:46;;;;;;;58.35;53.45;;;;;;;18.69;100.00;100873.16;5070668;28;20366;-81
2021/08/19 01:27:15;;;;;;;59.42;54.13;;;;;;;18.69;100.00;100870.47;5064067;28;20059;-80
2021/08/19 01:29:43;;;;;;;56.60;51.67;;;;;;;19.01;100.00;100874.25;5061944;28;20060;-80
2021/08/19 01:32:12;;;;;;;55.08;50.28;;;;;;;18.65;100.00;100869.34;5073042;28;20040;-80
2021/08/19 01:34:39;;;;;;;58.35;53.30;;;;;;;18.75;100.00;100877.53;5065968;28;20036;-80
2021/08/19 01:37:06;;;;;;;63.88;58.45;;;;;;;18.80;100.00;100875.97;5071420;28;20049;-80
2021/08/19 01:39:33;;;;;;;66.63;61.22;;;;;;;18.64;100.00;100875.81;5069905;28;20516;-80
2021/08/19 01:42:01;;;;;;;65.38;60.08;;;;;;;18.62;100.00;100880.63;5070890;28;20048;-81
2021/08/19 01:44:29;;;;;;;63.97;58.38;;;;;;;18.67;100.00;100871.78;5073387;28;20044;-81
2021/08/19 01:46:57;;;;;;;83.40;76.78;;;;;;;18.82;100.00;100885.41;5071578;28;20052;-79
2021/08/19 01:49:26;;;;;;;80.50;74.00;;;;;;;18.69;100.00;100888.47;5075862;28;20045;-80
2021/08/19 01:51:53;;;;;;;69.72;64.03;;;;;;;18.69;100.00;100885.78;5062024;28;20119;-80
2021/08/19 01:54:21;;;;;;;67.28;61.67;;;;;;;18.76;100.00;100889.94;5075430;28;20070;-81
2021/08/19 01:56:47;;;;;;;61.90;56.90;;;;;;;18.83;100.00;100891.59;5073201;28;20056;-79
2021/08/19 01:59:14;;;;;;;58.63;53.33;;;;;;;18.62;100.00;100894.06;5069252;28;20056;-80
2021/08/19 02:01:49;;;;;;;61.08;56.08;;;;;;;18.76;100.00;100889.13;5148420;22;20399;-81
2021/08/19 02:04:16;;;;;;;70.57;64.75;;;;;;;18.86;100.00;100893.78;5080347;28;20052;-79
2021/08/19 02:06:43;;;;;;;59.03;54.25;;;;;;;18.79;100.00;100890.47;5085683;28;20044;-79
2021/08/19 02:09:10;;;;;;;57.55;52.65;;;;;;;18.92;100.00;100885.50;5079361;28;20112;-79
2021/08/19 02:11:38;;;;;;;58.13;53.15;;;;;;;18.94;100.00;100877.13;5083070;28;20048;-79
2021/08/19 02:14:05;;;;;;;67.63;61.85;;;;;;;18.89;100.00;100879.81;5083330;28;20048;-80
2021/08/19 02:16:32;;;;;;;63.90;58.80;;;;;;;18.84;100.00;100877.06;5070444;28;20107;-79
2021/08/19 02:19:00;;;;;;;67.63;62.22;;;;;;;18.90;100.00;100874.16;5087193;28;20460;-81
2021/08/19 02:21:27;;;;;;;61.80;57.08;;;;;;;18.88;100.00;100883.56;5093272;28;20059;-80
2021/08/19 02:23:53;;;;;;;52.25;47.90;;;;;;;18.98;100.00;100879.06;5083807;28;20045;-81
2021/08/19 02:26:20;;;;;;;48.05;43.95;;;;;;;18.96;100.00;100872.31;5076745;28;20131;-79
2021/08/19 02:28:47;;;;;;;46.15;42.55;;;;;;;18.90;100.00;100876.84;5083033;28;20059;-80
2021/08/19 02:31:14;;;;;;;54.97;50.97;;;;;;;18.89;100.00;100885.19;5071285;28;20048;-79
2021/08/19 02:33:40;;;;;;;50.65;46.53;;;;;;;18.90;100.00;100881.44;5074461;28;20102;-79
2021/08/19 02:36:08;;;;;;;54.13;49.67;;;;;;;18.81;100.00;100883.78;5087987;28;20056;-81
2021/08/19 02:38:35;;;;;;;56.92;52.58;;;;;;;18.82;100.00;100884.59;5083078;28;20049;-80
2021/08/19 02:41:02;;;;;;;56.83;52.55;;;;;;;19.10;100.00;100888.84;5092093;28;20044;-79
2021/08/19 02:43:29;;;;;;;51.72;47.53;;;;;;;19.09;100.00;100896.13;5080627;28;20512;-79
2021/08/19 02:45:56;;;;;;;54.33;50.17;;;;;;;19.28;100.00;100896.53;5072057;28;20055;-80
2021/08/19 02:48:22;;;;;;;56.55;52.05;;;;;;;19.40;100.00;100901.72;5093712;28;20066;-80
2021/08/19 02:50:49;;;;;;;53.85;49.55;;;;;;;19.39;100.00;100900.06;5083532;28;20044;-80
2021/08/19 02:53:17;;;;;;;62.22;57.63;;;;;;;19.34;100.00;100908.13;5083859;28;20063;-80
2021/08/19 02:55:44;;;;;;;62.30;57.67;;;;;;;19.21;100.00;100910.22;5090360;28;20109;-80
2021/08/19 02:58:11;;;;;;;65.50;60.42;;;;;;;19.36;100.00;100906.78;5078206;28;20117;-80
2021/08/19 03:00:39;;;;;;;64.85;59.60;;;;;;;19.26;100.00;100908.63;5080483;28;20056;-79
2021/08/19 03:03:05;;;;;;;88.00;81.40;;;;;;;19.32;100.00;100919.16;5075041;28;20052;-80
2021/08/19 03:05:32;;;;;;;89.15;82.57;;;;;;;19.11;100.00;100922.78;5077117;28;20074;-79
2021/08/19 03:07:59;;;;;;;83.53;77.15;;;;;;;19.13;100.00;100923.34;5069876;28;20045;-80
2021/08/19 03:10:27;;;;;;;64.88;59.55;;;;;;;19.27;100.00;100921.81;5077819;28;20040;-80
2021/08/19 03:12:54;;;;;;;77.50;71.70;;;;;;;19.19;100.00;100920.41;5076876;28;20056;-79
2021/08/19 03:15:21;;;;;;;72.20;66.28;;;;;;;19.01;100.00;100920.81;5076249;28;20118;-79
2021/08/19 03:17:47;;;;;;;63.03;58.03;;;;;;;19.03;100.00;100915.16;5078365;28;20056;-79
2021/08/19 03:20:14;;;;;;;67.38;62.08;;;;;;;19.12;100.00;100921.69;5080755;28;20044;-79
2021/08/19 03:22:41;;;;;;;72.65;67.10;;;;;;;19.32;100.00;100921.84;5084176;28;20051;-80
2021/08/19 03:25:10;;;;;;;81.72;75.65;;;;;;;19.17;100.00;100922.53;5082789;28;20062;-79
2021/08/19 03:27:38;;;;;;;78.95;72.95;;;;;;;19.21;100.00;100920.97;5083039;28;20127;-79
2021/08/19 03:30:06;;;;;;;66.07;60.80;;;;;;;19.14;100.00;100912.28;5077574;28;20373;-80
2021/08/19 03:32:33;;;;;;;62.38;57.35;;;;;;;19.05;100.00;100913.84;5077468;28;20052;-80
2021/08/19 03:35:00;;;;;;;61.80;56.90;;;;;;;19.01;100.00;100918.13;5066934;28;20066;-79
2021/08/19 03:37:29;;;;;;;63.40;58.30;;;;;;;18.95;100.00;100919.97;5068930;28;20072;-80
2021/08/19 03:39:56;;;;;;;57.80;53.10;;;;;;;18.97;100.00;100925.91;5075824;28;20041;-80
2021/08/19 03:42:24;;;;;;;80.57;73.85;;;;;;;18.91;100.00;100929.63;5074955;28;20048;-79
2021/08/19 03:44:53;;;;;;;86.05;78.68;;;;;;;18.96;100.00;100935.03;5073577;28;20446;-79
2021/08/19 03:47:20;;;;;;;90.25;82.20;;;;;;;19.00;100.00;100935.31;5068144;28;20060;-80
2021/08/19 03:49:47;;;;;;;90.25;81.95;;;;;;;19.04;100.00;100932.97;5074306;28;20052;-79
2021/08/19 03:52:13;;;;;;;86.82;78.80;;;;;;;19.01;100.00;100942.34;5080038;28;20049;-80
2021/08/19 03:54:40;;;;;;;91.07;83.18;;;;;;;19.04;100.00;100949.91;5078902;28;20055;-80
2021/08/19 03:57:07;;;;;;;88.40;80.53;;;;;;;19.00;100.00;100948.78;5074103;28;20055;-82
2021/08/19 03:59:34;;;;;;;85.43;77.93;;;;;;;19.13;100.00;100958.34;5075981;28;20066;-79
2021/08/19 04:02:02;;;;;;;87.18;78.78;;;;;;;19.09;100.00;100962.59;5081920;28;20060;-79
2021/08/19 04:04:29;;;;;;;81.45;73.35;;;;;;;19.37;100.00;100964.97;5068642;28;20477;-80
2021/08/19 04:06:56;;;;;;;79.68;71.95;;;;;;;19.07;100.00;100968.25;5079453;28;20056;-79
2021/08/19 04:09:22;;;;;;;93.72;85.10;;;;;;;19.05;100.00;100973.06;5069303;28;20044;-79
2021/08/19 04:11:50;;;;;;;89.72;81.70;;;;;;;19.11;100.00;100974.72;5077770;28;20045;-80
2021/08/19 04:14:19;;;;;;;97.43;89.32;;;;;;;19.14;100.00;100978.78;5068216;28;20059;-80
2021/08/19 04:16:46;;;;;;;93.00;85.03;;;;;;;18.95;100.00;100981.88;5062947;28;20044;-80
2021/08/19 04:19:14;;;;;;;81.78;75.38;;;;;;;18.97;100.00;100976.22;5069621;28;20048;-79
2021/08/19 04:21:41;;;;;;;107.97;98.00;;;;;;;18.91;100.00;100982.59;5072604;28;20466;-80
2021/08/19 04:24:08;;;;;;;106.20;96.68;;;;;;;18.75;100.00;100987.03;5066677;28;20081;-79
2021/08/19 04:26:35;;;;;;;107.53;97.80;;;;;;;19.01;100.00;100979.22;5069703;28;20051;-80
2021/08/19 04:29:01;;;;;;;98.15;90.22;;;;;;;18.85;100.00;100989.84;5059497;28;20060;-80
2021/08/19 04:31:28;;;;;;;116.78;107.20;;;;;;;18.75;100.00;100987.84;5067623;28;20052;-78
2021/08/19 04:33:55;;;;;;;120.32;110.82;;;;;;;18.87;100.00;100987.69;5055429;28;20041;-79
2021/08/19 04:36:29;;;;;;;110.50;101.60;;;;;;;18.85;100.00;100991.69;5068039;28;20477;-80
2021/08/19 04:38:56;;;;;;;113.88;104.53;;;;;;;18.84;100.00;100992.78;5061963;28;20056;-80
2021/08/19 04:41:23;;;;;;;102.53;93.78;;;;;;;18.73;100.00;100983.81;5079470;28;20048;-79
2021/08/19 04:43:50;;;;;;;95.57;87.70;;;;;;;18.83;100.00;100988.47;5068742;28;20055;-79
2021/08/19 04:46:16;;;;;;;89.28;81.93;;;;;;;18.85;100.00;100984.47;5075834;28;20048;-79
2021/08/19 04:48:43;;;;;;;86.03;78.93;;;;;;;19.05;100.00;100980.31;5055881;28;20041;-79
2021/08/19 04:51:10;;;;;;;84.20;77.38;;;;;;;18.96;100.00;100988.06;5073284;28;20460;-79
2021/08/19 04:53:38;;;;;;;82.85;75.72;;;;;;;18.86;100.00;100983.38;5077138;28;20052;-83
2021/08/19 04:56:05;;;;;;;81.07;73.70;;;;;;;19.24;100.00;100978.88;5077518;28;20063;-79
2021/08/19 04:58:32;;;;;;;74.85;68.30;;;;;;;21.31;100.00;100972.16;5068394;28;21009;-79
2021/08/19 05:00:59;;;;;;;54.40;50.53;;;;;;;19.92;100.00;100986.38;5081828;28;20056;-80
2021/08/19 05:03:26;;;;;;;56.75;52.85;;;;;;;19.47;100.00;100991.16;5077570;28;20060;-80
2021/08/19 05:05:53;;;;;;;54.88;50.78;;;;;;;19.10;100.00;100988.47;5079652;28;20061;-84
2021/08/19 05:08:19;;;;;;;51.10;47.30;;;;;;;19.37;100.00;100991.09;5068673;28;20052;-80
2021/08/19 05:10:48;;;;;;;46.90;43.50;;;;;;;19.16;100.00;101004.41;5067766;28;20461;-79
2021/08/19 05:13:14;;;;;;;50.20;46.40;;;;;;;19.31;100.00;100995.63;5069483;28;20060;-79
2021/08/19 05:15:41;;;;;;;52.45;48.40;;;;;;;19.12;100.00;101002.44;5070597;28;20055;-79
2021/08/19 05:18:08;;;;;;;52.17;48.58;;;;;;;19.23;100.00;101004.97;5074008;28;20102;-79
2021/08/19 05:20:35;;;;;;;56.80;52.70;;;;;;;19.12;100.00;100997.91;5060916;28;20060;-80
2021/08/19 05:23:01;;;;;;;51.17;47.00;;;;;;;19.21;100.00;100999.06;5078236;28;20048;-79
2021/08/19 05:25:28;;;;;;;54.20;50.00;;;;;;;19.23;100.00;101006.88;5072373;28;20063;-81
2021/08/19 05:27:56;;;;;;;46.97;42.95;;;;;;;19.23;100.00;101009.56;5069031;28;20044;-79
2021/08/19 05:30:23;;;;;;;46.83;42.85;;;;;;;19.18;100.00;101014.88;5069675;28;20354;-79
2021/08/19 05:32:50;;;;;;;34.70;32.20;;;;;;;25.48;100.00;100995.84;5066047;28;20455;-78
2021/08/19 05:35:16;;;;;;;32.03;29.73;;;;;;;26.60;100.00;101000.22;5069298;28;20447;-78
2021/08/19 05:37:43;;;;;;;32.60;30.20;;;;;;;27.29;100.00;100994.47;5073741;28;20048;-78
2021/08/19 05:40:11;;;;;;;32.15;29.95;;;;;;;27.29;100.00;101002.66;5063109;28;20041;-78
2021/08/19 05:42:37;;;;;;;34.15;31.65;;;;;;;27.43;100.00;101006.13;5063728;28;20044;-78
2021/08/19 05:45:07;;;;;;;35.85;33.20;;;;;;;27.28;100.00;101001.84;5062455;28;20401;-80
2021/08/19 05:47:34;;;;;;;31.08;27.92;;;;;;;27.16;100.00;101001.63;5067579;28;20053;-77
2021/08/19 05:50:00;;;;;;;32.38;29.75;;;;;;;27.00;100.00;101005.81;5071344;28;20117;-78
2021/08/19 05:52:27;;;;;;;34.63;31.92;;;;;;;26.32;100.00;101008.38;5070731;28;20040;-81
2021/08/19 05:54:54;;;;;;;35.65;33.75;;;;;;;23.93;100.00;101009.16;5071641;28;20055;-85
2021/08/19 05:57:21;;;;;;;37.65;35.17;;;;;;;20.99;100.00;101035.31;5071703;28;20113;-81
2021/08/19 05:59:48;;;;;;;37.10;34.90;;;;;;;24.71;100.00;101023.41;5065709;28;20060;-77
2021/08/19 06:02:16;;;;;;;34.85;32.65;;;;;;;20.72;100.00;101030.94;5051244;28;20495;-76
2021/08/19 06:04:43;;;;;;;43.22;40.53;;;;;;;20.29;100.00;101035.59;5051149;28;20052;-76
2021/08/19 06:07:09;;;;;;;46.17;43.17;;;;;;;20.09;100.00;101039.03;5052606;28;20459;-76
2021/08/19 06:09:37;;;;;;;43.53;40.83;;;;;;;19.95;100.00;101037.88;5052694;28;20470;-76
2021/08/19 06:12:04;;;;;;;39.47;36.88;;;;;;;19.99;100.00;101030.88;5053107;28;20059;-76
2021/08/19 06:14:31;;;;;;;37.58;35.08;;;;;;;20.12;100.00;101038.50;5051811;28;20102;-76
2021/08/19 06:16:58;;;;;;;41.22;38.63;;;;;;;19.77;100.00;101033.72;5052552;28;20053;-77
2021/08/19 06:19:26;;;;;;;40.60;38.00;;;;;;;19.97;100.00;101029.50;5053127;28;20075;-77
2021/08/19 06:21:52;;;;;;;35.83;33.42;;;;;;;19.83;100.00;101031.88;5052994;28;20048;-76
2021/08/19 06:24:19;;;;;;;37.53;35.15;;;;;;;19.86;100.00;101028.66;5052699;28;20433;-77
2021/08/19 06:26:46;;;;;;;38.55;35.75;;;;;;;19.89;100.00;101028.94;5052951;28;20068;-77
2021/08/19 06:29:13;;;;;;;35.45;33.25;;;;;;;19.90;100.00;101029.75;5052749;28;20068;-77
2021/08/19 06:31:40;;;;;;;38.42;36.03;;;;;;;19.69;100.00;101034.19;5052907;28;20476;-78
2021/08/19 06:34:07;;;;;;;41.25;38.85;;;;;;;19.92;100.00;101029.50;5054613;28;20056;-77
2021/08/19 06:36:35;;;;;;;39.65;36.92;;;;;;;19.90;100.00;101027.84;5056577;28;20049;-76
2021/08/19 06:39:02;;;;;;;38.95;36.50;;;;;;;19.94;100.00;101032.72;5056486;28;20045;-77
2021/08/19 06:41:28;;;;;;;39.05;36.60;;;;;;;20.02;100.00;101033.03;5056304;28;20052;-76
2021/08/19 06:43:55;;;;;;;34.15;31.75;;;;;;;20.09;100.00;101040.91;5056406;28;20110;-77
2021/08/19 06:46:22;;;;;;;32.47;30.48;;;;;;;19.92;100.00;101045.66;5056285;28;20049;-76
2021/08/19 06:48:49;;;;;;;37.67;35.38;;;;;;;20.08;100.00;101047.38;5056006;28;20053;-77
2021/08/19 06:51:16;;;;;;;33.22;31.13;;;;;;;19.89;100.00;101047.81;5056077;28;20444;-80
2021/08/19 06:53:44;;;;;;;33.47;31.60;;;;;;;19.94;100.00;101051.59;5056110;28;20049;-79
2021/08/19 06:56:11;;;;;;;34.10;32.00;;;;;;;19.95;100.00;101051.34;5056148;28;20114;-76
2021/08/19 06:58:38;;;;;;;34.90;32.60;;;;;;;20.13;100.00;101060.88;5055762;28;20102;-81
2021/08/19 07:01:05;;;;;;;32.65;30.67;;;;;;;20.18;100.00;101057.41;5055781;28;20056;-76
2021/08/19 07:03:32;;;;;;;29.33;27.52;;;;;;;20.18;100.00;101058.19;5054410;28;20127;-76
2021/08/19 07:05:59;;;;;;;31.08;29.08;;;;;;;20.16;100.00;101063.06;5055824;28;20079;-77
2021/08/19 07:08:26;;;;;;;29.15;27.35;;;;;;;20.09;100.00;101057.91;5055685;28;20049;-76
2021/08/19 07:10:54;;;;;;;31.25;29.35;;;;;;;20.67;100.00;101052.53;5055792;28;20390;-76
2021/08/19 07:13:21;;;;;;;30.60;28.88;;;;;;;20.56;100.00;101062.47;5055842;28;20114;-76
2021/08/19 07:15:48;;;;;;;30.08;28.08;;;;;;;20.57;100.00;101072.19;5055787;28;20060;-76
2021/08/19 07:18:14;;;;;;;33.45;31.55;;;;;;;20.62;100.00;101075.97;5055353;28;20527;-76
2021/08/19 07:20:41;;;;;;;31.38;29.58;;;;;;;20.70;100.00;101070.09;5055705;28;20076;-76
2021/08/19 07:23:08;;;;;;;30.58;28.77;;;;;;;20.57;100.00;101077.59;5055374;28;20060;-76
2021/08/19 07:25:35;;;;;;;31.75;29.48;;;;;;;20.37;100.00;101074.78;5055247;28;20540;-76
2021/08/19 07:28:04;;;;;;;31.17;29.20;;;;;;;20.46;100.00;101072.38;5055220;28;20056;-77
2021/08/19 07:30:31;;;;;;;30.92;28.88;;;;;;;20.45;100.00;101074.25;5055308;28;20049;-76
2021/08/19 07:32:58;;;;;;;29.70;27.90;;;;;;;21.06;100.00;101060.19;5055449;28;20063;-77
2021/08/19 07:35:26;;;;;;;33.30;31.15;;;;;;;21.27;100.00;101061.00;5055140;28;20578;-81
2021/08/19 07:37:54;;;;;;;32.30;30.30;;;;;;;21.20;100.00;101068.56;5055363;28;20053;-76
2021/08/19 07:40:23;;;;;;;32.72;30.58;;;;;;;21.47;100.00;101063.75;5055054;28;20048;-76
2021/08/19 07:42:51;;;;;;;32.08;30.05;;;;;;;21.61;100.00;101064.03;5055183;28;20059;-76
2021/08/19 07:45:20;;;;;;;33.70;31.45;;;;;;;21.66;100.00;101058.59;5054917;28;20401;-77
2021/08/19 07:47:46;;;;;;;32.70;30.55;;;;;;;22.01;100.00;101064.25;5055218;28;20049;-76
2021/08/19 07:50:13;;;;;;;36.45;34.05;;;;;;;21.73;100.00;101061.03;5054717;28;20045;-76
2021/08/19 07:52:41;;;;;;;35.15;32.67;;;;;;;21.84;100.00;101069.94;5054759;28;20056;-77
2021/08/19 07:55:10;;;;;;;34.38;32.17;;;;;;;21.64;100.00;101071.59;5054954;28;20045;-77
2021/08/19 07:57:45;;;;;;;31.63;29.73;;;;;;;21.72;100.00;101068.34;5054679;28;20509;-76
2021/08/19 08:00:13;;;;;;;30.40;28.50;;;;;;;21.76;100.00;101060.50;5054966;28;20057;-77
2021/08/19 08:02:41;;;;;;;30.70;28.90;;;;;;;22.40;100.00;101059.81;5053324;28;20061;-77
2021/08/19 08:05:08;;;;;;;28.92;27.13;;;;;;;22.91;100.00;101052.53;5054398;28;20440;-76
2021/08/19 08:07:35;;;;;;;29.20;27.30;;;;;;;22.76;100.00;101061.56;5054744;28;20122;-76
2021/08/19 08:10:02;;;;;;;31.15;29.35;;;;;;;22.76;100.00;101056.16;5054338;28;20055;-76
2021/08/19 08:12:29;;;;;;;27.35;25.55;;;;;;;23.07;100.00;101048.66;5054467;28;20379;-76
2021/08/19 08:14:56;;;;;;;30.05;27.77;;;;;;;22.96;100.00;101053.31;5054309;28;20437;-78
2021/08/19 08:17:22;;;;;;;29.77;28.00;;;;;;;22.98;100.00;101047.66;5054236;28;20048;-77
2021/08/19 08:19:50;;;;;;;30.73;28.83;;;;;;;23.73;100.00;101039.22;5054420;28;20493;-76
2021/08/19 08:22:18;;;;;;;33.40;31.20;;;;;;;24.09;100.00;101038.84;5054520;28;20045;-76
2021/08/19 08:24:45;;;;;;;33.83;31.75;;;;;;;23.60;100.00;101047.97;5054163;28;20516;-77
2021/08/19 08:27:12;;;;;;;34.55;32.55;;;;;;;23.11;100.00;101046.19;5054429;28;20053;-77
2021/08/19 08:29:39;;;;;;;39.35;37.22;;;;;;;23.36;100.00;101037.88;5054143;28;20052;-76
2021/08/19 08:32:07;;;;;;;33.80;32.00;;;;;;;23.48;100.00;101040.19;5053927;28;20048;-76
2021/08/19 08:34:34;;;;;;;31.00;29.30;;;;;;;24.63;100.00;101035.75;5054342;28;20053;-76
2021/08/19 08:37:03;;;;;;;26.95;25.25;;;;;;;23.78;100.00;101049.97;5054358;28;20060;-76
2021/08/19 08:39:31;;;;;;;27.50;25.90;;;;;;;23.81;100.00;101038.56;5054222;28;20061;-76
2021/08/19 08:41:58;;;;;;;27.08;25.30;;;;;;;23.37;100.00;101038.69;5054117;28;20045;-77
2021/08/19 08:44:28;;;;;;;28.35;26.65;;;;;;;23.82;100.00;101039.41;5054169;28;20386;-76
2021/08/19 08:46:55;;;;;;;28.40;26.60;;;;;;;23.65;100.00;101032.47;5054084;28;20479;-78
2021/08/19 08:49:23;;;;;;;30.15;28.42;;;;;;;23.69;100.00;101029.97;5053992;28;20053;-76
2021/08/19 08:51:56;;;;;;;30.40;28.48;;;;;;;23.91;100.00;101030.34;5053943;28;20060;-76
2021/08/19 08:54:24;;;;;;;31.70;29.75;;;;;;;23.68;100.00;101029.19;5053812;28;20053;-77
2021/08/19 08:56:51;;;;;;;30.10;28.30;;;;;;;23.72;100.00;101032.16;5053459;28;20053;-76
2021/08/19 08:59:18;;;;;;;30.35;28.55;;;;;;;24.25;100.00;101023.19;5053580;28;20460;-76
2021/08/19 09:01:44;;;;;;;30.75;28.83;;;;;;;24.14;100.00;101022.47;5053734;28;20041;-76
2021/08/19 09:04:11;;;;;;;33.15;30.75;;;;;;;24.64;100.00;101029.19;5052229;28;20060;-76
2021/08/19 09:06:40;;;;;;;32.95;31.13;;;;;;;24.21;100.00;101031.09;5053439;28;20511;-76
2021/08/19 09:09:22;;;;;;;35.75;33.75;;;;;;;24.07;100.00;101022.03;5053443;28;20049;-76
2021/08/19 09:11:54;;;;;;;28.77;26.73;;;;;;;24.32;100.00;101019.00;5053387;28;20123;-77
2021/08/19 09:14:23;;;;;;;33.22;31.20;;;;;;;24.83;100.00;101018.34;5053385;28;20049;-76
2021/08/19 09:16:50;;;;;;;32.15;30.15;;;;;;;25.28;100.00;101021.47;5053277;28;20489;-77
2021/08/19 09:19:18;;;;;;;32.92;31.02;;;;;;;25.23;100.00;101018.03;5053450;28;20052;-76
2021/08/19 09:21:51;;;;;;;32.42;30.33;;;;;;;25.66;100.00;101009.66;5053291;28;20048;-77
2021/08/19 09:24:18;;;;;;;;;;;;;;;26.30;100.00;101018.78;5053980;28;20122;-76
2021/08/19 09:26:46;;;;;;;35.45;33.47;;;;;;;25.52;100.00;101009.66;5053147;28;19955;-77
2021/08/19 09:29:24;;;;;;;26.92;25.13;;;;;;;24.79;100.00;101011.88;5053416;28;20378;-77
2021/08/19 09:31:54;;;;;;;29.45;27.65;;;;;;;24.95;100.00;101011.66;5053121;28;20442;-77
2021/08/19 09:34:20;;;;;;;32.63;30.42;;;;;;;24.25;100.00;101009.63;5053483;28;20049;-76
2021/08/19 09:36:47;;;;;;;28.20;26.40;;;;;;;24.44;100.00;101016.69;5053110;28;20436;-76
2021/08/19 09:39:14;;;;;;;29.35;27.15;;;;;;;24.84;100.00;101019.13;5053110;28;20520;-77
2021/08/19 09:41:51;;;;;;;29.38;27.58;;;;;;;25.99;100.00;101018.59;5053021;28;20049;-77
2021/08/19 09:44:31;;;;;;;27.20;25.35;;;;;;;26.74;100.00;101014.56;5053457;28;20052;-76
2021/08/19 09:46:58;;;;;;;28.38;26.55;;;;;;;25.63;100.00;101007.53;5053346;28;20045;-76
2021/08/19 09:49:28;;;;;;;29.23;27.42;;;;;;;26.74;97.70;101014.56;5052925;28;20460;-76
2021/08/19 09:52:06;;;;;;;28.05;26.35;;;;;;;25.94;98.77;101010.53;5053195;28;20076;-76
2021/08/19 09:54:34;;;;;;;28.98;27.38;;;;;;;26.16;100.00;101016.06;5053242;28;20064;-76
2021/08/19 09:57:01;;;;;;;30.15;28.33;;;;;;;26.03;100.00;101008.72;5053293;28;20049;-77
2021/08/19 09:59:34;;;;;;;30.50;28.70;;;;;;;26.98;100.00;101005.31;5053461;28;20053;-76
2021/08/19 10:02:01;;;;;;;41.85;39.55;;;;;;;26.93;100.00;101007.06;5051740;28;20055;-76
2021/08/19 10:04:28;;;;;;;36.35;34.35;;;;;;;27.15;99.02;100998.09;5013563;28;20065;-76
2021/08/19 10:06:55;;;;;;;33.03;31.13;;;;;;;27.85;90.43;101001.22;5013486;28;20477;-76
2021/08/19 10:09:23;;;;;;;33.90;32.00;;;;;;;26.98;85.69;100999.88;5015761;28;20080;-77
2021/08/19 10:11:51;;;;;;;38.08;36.08;;;;;;;27.14;83.37;100998.34;5017215;28;20046;-76
2021/08/19 10:14:20;;;;;;;33.92;32.00;;;;;;;26.65;80.86;101000.06;5017036;28;20053;-79
2021/08/19 10:16:49;;;;;;;36.90;34.80;;;;;;;26.56;78.39;100996.47;5016815;28;20396;-77
2021/08/19 10:19:20;;;;;;;32.45;30.67;;;;;;;26.66;80.52;100990.81;5017066;28;20057;-77
2021/08/19 10:21:51;;;;;;;28.17;26.67;;;;;;;26.19;90.75;100999.13;5017131;28;20152;-76
2021/08/19 10:24:24;;;;;;;31.83;29.60;;;;;;;26.52;78.00;100984.59;5017109;28;20402;-75
2021/08/19 10:27:09;;;;;;;29.77;28.00;;;;;;;26.73;79.56;100980.28;5016716;28;20149;-76
2021/08/19 10:29:42;;;;;;;29.52;27.85;;;;;;;27.60;76.77;100975.41;5016862;28;20058;-76
2021/08/19 10:32:21;;;;;;;30.90;29.20;;;;;;;27.87;72.05;100974.41;5016520;28;20493;-75
2021/08/19 10:34:59;;;;;;;30.08;28.40;;;;;;;28.07;69.26;100962.09;5016869;28;20046;-76
2021/08/19 10:38:03;;;;;;;27.83;25.92;;;;;;;28.36;62.62;100953.31;5016924;28;20065;-76
2021/08/19 10:40:38;;;;;;;30.00;28.10;;;;;;;27.89;58.98;100958.50;5016409;28;20061;-76
2021/08/19 10:43:47;;;;;;;26.48;24.77;;;;;;;26.92;63.63;100963.75;5016640;28;20116;-78
2021/08/19 10:46:18;;;;;;;25.95;24.10;;;;;;;27.61;68.35;100953.25;5016619;28;20081;-75
2021/08/19 10:48:53;;;;;;;27.52;25.83;;;;;;;26.90;67.82;100953.19;5016264;28;20049;-75
2021/08/19 10:51:20;;;;;;;27.45;25.85;;;;;;;26.79;68.20;100962.69;5016519;28;20045;-75
2021/08/19 10:53:47;;;;;;;27.30;25.67;;;;;;;27.12;68.59;100955.06;5016427;28;20119;-76
2021/08/19 10:56:22;;;;;;;26.63;25.02;;;;;;;27.28;68.85;100955.50;5016203;28;20061;-75
2021/08/19 10:58:49;;;;;;;25.23;23.63;;;;;;;27.06;76.64;100956.31;5016459;28;20057;-78
2021/08/19 11:01:25;;;;;;;26.52;24.92;;;;;;;26.63;67.07;100961.47;5016302;28;20046;-75
2021/08/19 11:03:54;;;;;;;26.63;25.02;;;;;;;26.23;67.62;100958.50;5044817;28;20187;-78
2021/08/19 11:06:24;;;;;;;26.92;25.35;;;;;;;26.49;72.64;100956.06;5055614;28;20051;-79